Time;durP1;ratioP1;P1;durP2;ratioP2;P2;SDS_P1;SDS_P2;PMS_P1;PMS_P2;Temp;Humidity;BMP_temperature;BMP_pressure;BME280_temperature;BME280_humidity;BME280_pressure;Samples;Min_cycle;Max_cycle;Signal;HPM_P1;HPM_P2
2022/10/30 00:00:23;;;;;;;27.45;7.60;;;;;;;13.50;81.12;101457.81;5091938;28;20043;-81
2022/10/30 00:02:48;;;;;;;49.42;9.27;;;;;;;13.33;80.89;101422.34;5091423;28;20020;-79
2022/10/30 00:05:15;;;;;;;35.15;9.10;;;;;;;13.33;80.83;101423.16;5091569;28;20027;-79
2022/10/30 00:07:40;;;;;;;125.97;12.23;;;;;;;13.52;80.74;101454.97;5094236;28;20131;-79
2022/10/30 00:10:06;;;;;;;23.50;9.07;;;;;;;13.45;80.96;101446.53;5092597;28;20024;-79
2022/10/30 00:12:31;;;;;;;36.78;10.95;;;;;;;13.50;81.28;101447.00;5090952;28;20024;-79
2022/10/30 00:14:58;;;;;;;22.40;10.93;;;;;;;13.53;81.26;101448.59;5091397;28;20024;-78
2022/10/30 00:17:23;;;;;;;24.08;11.75;;;;;;;13.49;81.20;101433.59;5090939;28;20376;-78
2022/10/30 00:19:49;;;;;;;21.70;11.38;;;;;;;13.51;81.73;101440.63;5091169;28;20024;-78
2022/10/30 00:22:14;;;;;;;17.90;10.60;;;;;;;13.55;81.75;101450.19;5091202;28;20028;-78
2022/10/30 00:24:40;;;;;;;13.80;10.85;;;;;;;13.35;82.06;101409.56;5091082;28;20036;-79
2022/10/30 00:27:05;;;;;;;22.50;12.27;;;;;;;13.44;82.30;101422.31;5091260;28;20054;-78
2022/10/30 00:29:30;;;;;;;19.98;11.70;;;;;;;13.47;82.22;101430.19;5090730;28;20027;-78
2022/10/30 00:31:56;;;;;;;21.52;12.60;;;;;;;13.38;82.22;101412.00;5091360;28;20488;-78
2022/10/30 00:34:24;;;;;;;18.20;11.48;;;;;;;13.42;82.22;101422.44;5091213;28;20402;-79
2022/10/30 00:36:50;;;;;;;17.90;12.65;;;;;;;13.46;82.73;101423.03;5090997;28;20085;-79
2022/10/30 00:39:15;;;;;;;23.42;12.20;;;;;;;13.42;82.41;101427.00;5054941;28;20036;-78
2022/10/30 00:41:41;;;;;;;15.80;11.32;;;;;;;13.47;82.19;101435.59;5090899;28;20024;-77
2022/10/30 00:44:37;;;;;;;15.85;11.50;;;;;;;13.47;82.08;101430.19;5090868;28;20028;-78
2022/10/30 00:47:09;;;;;;;19.35;10.98;;;;;;;13.28;81.76;101389.41;5091805;28;20048;-79
2022/10/30 00:49:41;;;;;;;62.50;14.48;;;;;;;13.47;81.73;101419.38;5091096;28;20020;-79
2022/10/30 00:52:08;;;;;;;27.08;12.68;;;;;;;13.46;81.58;101423.03;5090941;28;20115;-79
2022/10/30 00:54:35;;;;;;;22.30;12.35;;;;;;;13.35;80.97;101415.81;5103772;28;20028;-79
2022/10/30 00:57:05;;;;;;;25.23;13.52;;;;;;;13.35;80.98;101414.97;5114670;28;20031;-78
2022/10/30 00:59:34;;;;;;;26.55;11.90;;;;;;;13.29;81.40;101410.03;5114331;28;20119;-77
2022/10/30 01:02:02;;;;;;;24.15;12.23;;;;;;;13.12;81.23;101386.22;5090943;28;20024;-79
2022/10/30 01:04:30;;;;;;;24.10;11.98;;;;;;;13.12;81.48;101391.63;5071469;28;20036;-80
2022/10/30 01:06:57;;;;;;;21.48;11.43;;;;;;;13.18;81.46;101404.66;5088795;28;20077;-78
2022/10/30 01:09:23;;;;;;;14.25;10.45;;;;;;;13.17;81.93;101397.53;5090679;28;20038;-79
2022/10/30 01:11:48;;;;;;;29.35;10.85;;;;;;;13.16;82.12;101398.50;5090126;28;20032;-78
2022/10/30 01:14:17;;;;;;;15.10;9.80;;;;;;;13.13;82.14;101394.19;5090426;28;20047;-78
2022/10/30 01:16:49;;;;;;;18.45;10.32;;;;;;;13.18;82.26;101397.38;5090387;28;20038;-79
2022/10/30 01:19:52;;;;;;;14.77;9.80;;;;;;;13.22;82.32;101389.91;5090363;28;20029;-80
2022/10/30 01:22:43;;;;;;;;;;;;;;;13.20;82.22;101383.78;5090684;28;20048;-78
2022/10/30 01:25:24;;;;;;;208.85;24.75;;;;;;;13.19;82.14;101387.44;5046992;28;19978;-78
2022/10/30 01:28:04;;;;;;;72.47;15.13;;;;;;;13.23;82.05;101384.38;5047162;28;20041;-78
2022/10/30 01:30:51;;;;;;;22.40;9.55;;;;;;;13.22;82.52;101373.69;5046893;28;20061;-79
2022/10/30 01:33:52;;;;;;;31.67;12.52;;;;;;;13.23;82.37;101378.13;5046688;28;20049;-80
2022/10/30 01:36:26;;;;;;;17.42;10.05;;;;;;;13.20;82.01;101375.66;5007239;28;20030;-78
2022/10/30 01:38:58;;;;;;;16.25;10.70;;;;;;;13.04;81.72;101381.41;5007108;28;20050;-80
2022/10/30 01:41:23;;;;;;;19.48;11.13;;;;;;;12.98;81.22;101384.59;5007701;28;20038;-78
2022/10/30 01:43:53;;;;;;;22.75;10.60;;;;;;;12.91;80.81;101384.22;5007138;28;20048;-80
2022/10/30 01:46:29;;;;;;;19.65;11.18;;;;;;;12.92;80.47;101375.13;5007358;28;20038;-79
2022/10/30 01:49:19;;;;;;;26.17;11.25;;;;;;;12.90;80.12;101377.06;5006913;28;20069;-78
2022/10/30 01:51:56;;;;;;;32.17;13.52;;;;;;;12.93;79.90;101370.59;5006755;28;20034;-79
2022/10/30 01:54:41;;;;;;;27.63;11.68;;;;;;;12.93;79.75;101368.78;5007034;28;20133;-79
2022/10/30 01:57:17;;;;;;;34.30;15.43;;;;;;;12.78;79.63;101331.31;4990506;28;20022;-79
2022/10/30 02:00:01;;;;;;;72.82;21.55;;;;;;;12.96;79.27;101373.06;5007685;28;20417;-78
2022/10/30 02:02:27;;;;;;;32.10;18.55;;;;;;;12.92;79.09;101368.88;5021103;28;20451;-79
2022/10/30 02:04:52;;;;;;;28.58;14.57;;;;;;;12.91;79.12;101365.31;5027098;28;20083;-80
2022/10/30 02:07:18;;;;;;;29.75;15.43;;;;;;;12.89;79.36;101367.28;5050837;28;20041;-78
2022/10/30 02:09:44;;;;;;;31.85;13.93;;;;;;;12.85;79.07;101363.09;5052361;28;20048;-79
2022/10/30 02:12:10;;;;;;;27.02;14.35;;;;;;;12.76;78.96;101374.63;5062444;28;20105;-79
2022/10/30 02:14:40;;;;;;;21.60;13.18;;;;;;;12.75;78.89;101378.28;5089540;28;20138;-80
2022/10/30 02:17:08;;;;;;;22.98;12.68;;;;;;;12.76;78.72;101368.34;5089163;28;20028;-77
2022/10/30 02:19:34;;;;;;;21.38;12.43;;;;;;;12.74;78.75;101365.78;5089122;28;20024;-78
2022/10/30 02:22:00;;;;;;;37.28;12.35;;;;;;;12.69;77.91;101367.97;5088824;28;20028;-78
2022/10/30 02:24:26;;;;;;;30.80;12.32;;;;;;;12.59;77.93;101366.13;5089295;28;20445;-79
2022/10/30 02:26:52;;;;;;;25.40;11.68;;;;;;;12.57;77.95;101368.09;5089004;28;21085;-82
2022/10/30 02:29:19;;;;;;;19.75;12.65;;;;;;;12.53;78.02;101378.28;5088937;28;20058;-79
2022/10/30 02:31:45;;;;;;;25.52;13.27;;;;;;;12.38;78.44;101352.47;5088634;28;20071;-79
2022/10/30 02:34:11;;;;;;;25.73;12.38;;;;;;;12.43;78.17;101361.06;5087447;28;20091;-80
2022/10/30 02:36:36;;;;;;;20.98;13.68;;;;;;;12.43;78.06;101355.66;5088555;28;20036;-80
2022/10/30 02:39:02;;;;;;;19.55;13.27;;;;;;;12.44;77.96;101362.78;5089021;28;20032;-78
2022/10/30 02:41:28;;;;;;;24.50;13.75;;;;;;;12.41;78.04;101363.03;5069784;28;20081;-79
2022/10/30 02:43:53;;;;;;;25.45;14.10;;;;;;;12.44;78.02;101362.78;5088806;28;20106;-80
2022/10/30 02:46:19;;;;;;;24.20;14.02;;;;;;;12.24;77.95;101339.19;5088767;28;20036;-79
2022/10/30 02:48:44;;;;;;;21.45;15.02;;;;;;;12.29;77.42;101353.19;5087560;28;20039;-79
2022/10/30 02:51:11;;;;;;;22.92;15.60;;;;;;;12.24;77.33;101356.22;5088823;28;20103;-80
2022/10/30 02:53:37;;;;;;;28.17;16.40;;;;;;;12.16;77.27;101358.66;5089162;28;20047;-78
2022/10/30 02:56:08;;;;;;;22.80;14.60;;;;;;;12.25;77.62;101360.66;5087437;28;20063;-79
2022/10/30 02:58:34;;;;;;;27.55;16.80;;;;;;;12.00;77.63;101323.03;5088904;28;20024;-78
2022/10/30 03:01:17;;;;;;;25.73;15.52;;;;;;;12.21;77.55;101367.25;5069290;28;20074;-80
2022/10/30 03:03:42;;;;;;;34.10;17.63;;;;;;;12.16;77.98;101347.00;5088542;28;20483;-79
2022/10/30 03:06:10;;;;;;;65.15;20.63;;;;;;;12.28;78.21;101367.66;5092066;28;20020;-78
2022/10/30 03:08:36;;;;;;;44.92;23.20;;;;;;;12.25;79.41;101339.06;5092446;28;20487;-80
2022/10/30 03:11:08;;;;;;;67.82;26.73;;;;;;;12.33;79.61;101369.00;5092874;28;20051;-78
2022/10/30 03:13:34;;;;;;;55.38;25.98;;;;;;;12.33;80.13;101360.03;5093032;28;20592;-78
2022/10/30 03:16:05;;;;;;;59.65;26.98;;;;;;;12.28;80.64;101364.94;5092939;28;20028;-78
2022/10/30 03:18:31;;;;;;;59.95;26.33;;;;;;;12.22;80.84;101357.31;5106354;28;20039;-78
2022/10/30 03:20:58;;;;;;;49.08;24.10;;;;;;;12.22;81.07;101363.59;5117419;28;20040;-77
2022/10/30 03:23:24;;;;;;;40.80;24.20;;;;;;;12.23;80.91;101359.06;5116977;28;20043;-80
2022/10/30 03:25:54;;;;;;;44.22;25.58;;;;;;;12.07;80.77;101336.94;5094520;28;20043;-81
2022/10/30 03:28:23;;;;;;;51.58;25.40;;;;;;;12.19;81.27;101360.25;5092022;28;20066;-78
2022/10/30 03:30:49;;;;;;;41.25;25.85;;;;;;;11.90;81.42;101330.09;5092405;28;20153;-78
2022/10/30 03:33:15;;;;;;;50.95;28.83;;;;;;;12.04;81.13;101348.81;5092413;28;20457;-81
2022/10/30 03:35:44;;;;;;;61.60;29.33;;;;;;;11.96;81.08;101360.16;5092082;28;20026;-80
2022/10/30 03:38:13;;;;;;;55.10;27.95;;;;;;;11.93;80.64;101356.81;5092047;28;20024;-81
2022/10/30 03:40:39;;;;;;;47.72;29.52;;;;;;;11.92;80.58;101345.22;5090733;28;20423;-80
2022/10/30 03:43:04;;;;;;;46.10;29.08;;;;;;;11.95;80.55;101361.16;5091693;28;20057;-78
2022/10/30 03:45:32;;;;;;;48.03;28.10;;;;;;;11.91;80.52;101353.41;5092334;28;20054;-80
2022/10/30 03:48:01;;;;;;;44.60;27.92;;;;;;;11.78;80.19;101358.84;5091758;28;20047;-80
2022/10/30 03:50:27;;;;;;;50.08;25.90;;;;;;;11.70;80.75;101360.41;5092094;28;20104;-79
2022/10/30 03:52:53;;;;;;;43.83;26.10;;;;;;;11.66;81.43;101359.72;5091789;28;20032;-78
2022/10/30 03:55:19;;;;;;;43.20;26.17;;;;;;;11.45;81.34;101315.53;5091615;28;20403;-77
2022/10/30 03:57:44;;;;;;;56.85;25.10;;;;;;;11.52;81.56;101341.03;5091525;28;20024;-79
2022/10/30 04:00:11;;;;;;;43.15;25.45;;;;;;;11.60;81.95;101349.41;5091708;28;20081;-80
2022/10/30 04:02:37;;;;;;;44.13;25.58;;;;;;;11.59;81.79;101336.91;5091429;28;20028;-79
2022/10/30 04:05:02;;;;;;;44.45;29.23;;;;;;;11.50;82.22;101305.25;5091363;28;20085;-78
2022/10/30 04:07:28;;;;;;;43.78;27.30;;;;;;;11.58;82.62;101302.00;5091559;28;20609;-78
2022/10/30 04:09:54;;;;;;;33.05;24.13;;;;;;;11.75;82.24;101339.34;5091396;28;20042;-78
2022/10/30 04:12:20;;;;;;;41.35;26.05;;;;;;;11.69;81.95;101327.16;5091462;28;20040;-80
2022/10/30 04:14:45;;;;;;;41.15;26.58;;;;;;;11.79;82.57;101339.00;5091140;28;20423;-78
2022/10/30 04:17:11;;;;;;;42.53;31.08;;;;;;;11.74;81.93;101333.09;5090949;28;20032;-79
2022/10/30 04:19:36;;;;;;;37.60;29.17;;;;;;;11.79;81.96;101330.94;5091318;28;20016;-79
2022/10/30 04:22:01;;;;;;;46.28;32.10;;;;;;;11.77;82.38;101330.16;5091540;28;20059;-78
2022/10/30 04:24:27;;;;;;;48.65;32.70;;;;;;;11.62;81.28;101320.50;5091711;28;20459;-79
2022/10/30 04:26:52;;;;;;;41.95;31.52;;;;;;;11.62;80.87;101336.66;5091350;28;20039;-79
2022/10/30 04:29:18;;;;;;;46.67;30.75;;;;;;;11.45;81.07;101329.84;5093668;28;20024;-80
2022/10/30 04:31:43;;;;;;;46.95;32.17;;;;;;;11.43;81.10;101326.44;5116661;28;20115;-78
2022/10/30 04:34:09;;;;;;;43.33;28.63;;;;;;;11.47;81.87;101343.19;5116464;28;20112;-78
2022/10/30 04:36:35;;;;;;;39.60;29.80;;;;;;;11.47;81.82;101332.41;5106216;28;20035;-79
2022/10/30 04:39:01;;;;;;;38.75;27.65;;;;;;;11.47;82.36;101325.19;5091078;28;20024;-79
2022/10/30 04:41:26;;;;;;;41.30;26.92;;;;;;;11.41;82.08;101332.88;5091106;28;20380;-79
2022/10/30 04:43:52;;;;;;;39.30;26.23;;;;;;;11.23;81.97;101331.53;5090912;28;20028;-79
2022/10/30 04:46:17;;;;;;;39.88;26.67;;;;;;;11.25;82.05;101340.38;5090826;28;20036;-80
2022/10/30 04:48:43;;;;;;;39.10;26.50;;;;;;;11.37;81.71;101336.78;5090855;28;20048;-78
2022/10/30 04:51:10;;;;;;;37.67;27.08;;;;;;;11.38;82.08;101343.88;5090718;28;20031;-79
2022/10/30 04:53:37;;;;;;;40.35;25.65;;;;;;;11.38;81.35;101336.66;5090564;28;20039;-78
2022/10/30 04:56:03;;;;;;;34.58;23.83;;;;;;;11.20;80.93;101312.91;5090636;28;20027;-78
2022/10/30 04:58:28;;;;;;;38.55;25.63;;;;;;;11.23;80.79;101323.44;5090873;28;20024;-79
2022/10/30 05:00:54;;;;;;;41.10;23.67;;;;;;;11.15;80.83;101304.31;5090882;28;20035;-80
2022/10/30 05:03:22;;;;;;;41.53;25.10;;;;;;;11.34;80.71;101339.72;5090177;28;20028;-77
2022/10/30 05:05:56;;;;;;;134.70;28.42;;;;;;;11.31;81.25;101332.69;5090175;28;20035;-80
2022/10/30 05:08:21;;;;;;;52.13;25.70;;;;;;;11.44;81.69;101343.41;5090057;28;20445;-79
2022/10/30 05:10:46;;;;;;;43.22;26.05;;;;;;;11.49;81.75;101343.97;5090181;28;20084;-79
2022/10/30 05:13:12;;;;;;;166.48;36.83;;;;;;;11.54;82.08;101340.91;5090168;28;20056;-77
2022/10/30 05:15:38;;;;;;;60.30;27.63;;;;;;;11.60;82.13;101340.47;5089853;28;20327;-78
2022/10/30 05:18:03;;;;;;;47.42;24.48;;;;;;;11.68;82.75;101341.59;5090030;28;20069;-79
2022/10/30 05:20:28;;;;;;;58.35;26.17;;;;;;;11.76;81.97;101339.25;5089917;28;20039;-77
2022/10/30 05:22:55;;;;;;;47.67;25.80;;;;;;;11.72;82.23;101326.97;5089997;28;20020;-78
2022/10/30 05:25:21;;;;;;;42.35;24.40;;;;;;;11.41;82.38;101257.47;5089963;28;20059;-78
2022/10/30 05:27:47;;;;;;;57.60;27.45;;;;;;;11.93;82.38;101336.13;5089226;28;20063;-80
2022/10/30 05:30:12;;;;;;;42.45;26.02;;;;;;;11.90;82.38;101340.88;5090075;28;20366;-78
2022/10/30 05:32:38;;;;;;;51.67;24.73;;;;;;;12.01;82.37;101343.66;5089573;28;20426;-79
2022/10/30 05:35:03;;;;;;;39.45;25.42;;;;;;;12.07;83.02;101348.56;5090400;28;20473;-78
2022/10/30 05:37:29;;;;;;;43.75;25.75;;;;;;;12.10;82.72;101326.78;5090296;28;20032;-78
2022/10/30 05:39:54;;;;;;;45.38;24.35;;;;;;;12.28;83.04;101346.06;5090061;28;20027;-79
2022/10/30 05:42:19;;;;;;;44.17;23.38;;;;;;;12.37;83.35;101334.56;5103163;28;20281;-78
2022/10/30 05:44:45;;;;;;;39.35;23.52;;;;;;;12.51;82.78;101343.28;5115252;28;20043;-78
2022/10/30 05:47:10;;;;;;;41.75;24.85;;;;;;;12.52;82.62;101334.22;5116044;28;20024;-77
2022/10/30 05:49:36;;;;;;;67.10;26.67;;;;;;;12.59;82.50;101340.00;5093605;28;20012;-78
2022/10/30 05:52:01;;;;;;;58.53;24.42;;;;;;;12.72;82.80;101348.00;5090013;28;20042;-79
2022/10/30 05:54:27;;;;;;;44.65;22.23;;;;;;;12.84;82.52;101344.34;5087989;28;20589;-79
2022/10/30 05:56:52;;;;;;;36.67;22.08;;;;;;;12.90;82.11;101336.56;5089256;28;20035;-79
2022/10/30 05:59:18;;;;;;;39.53;22.52;;;;;;;13.00;82.27;101329.47;5089398;28;20020;-80
2022/10/30 06:01:43;;;;;;;31.35;21.35;;;;;;;13.13;81.77;101344.72;5089330;28;20032;-79
2022/10/30 06:04:09;;;;;;;43.08;22.02;;;;;;;13.24;81.30;101342.03;5089335;28;20497;-78
2022/10/30 06:06:34;;;;;;;40.55;23.20;;;;;;;13.37;81.21;101337.31;5089003;28;20508;-79
2022/10/30 06:09:00;;;;;;;38.85;21.83;;;;;;;13.25;80.93;101303.22;5089082;28;20028;-78
2022/10/30 06:11:25;;;;;;;41.58;21.92;;;;;;;13.46;79.82;101333.88;5089388;28;20035;-79
2022/10/30 06:13:50;;;;;;;44.45;23.88;;;;;;;13.52;79.06;101325.25;5089085;28;20020;-80
2022/10/30 06:16:16;;;;;;;44.67;23.55;;;;;;;13.39;78.67;101316.47;5089125;28;20027;-79
2022/10/30 06:18:41;;;;;;;38.13;24.17;;;;;;;13.55;78.10;101335.81;5069939;28;20047;-78
2022/10/30 06:21:07;;;;;;;55.08;25.58;;;;;;;13.57;77.81;101339.25;5088989;28;20042;-77
2022/10/30 06:23:32;;;;;;;44.75;27.13;;;;;;;13.45;77.12;101313.25;5089146;28;20487;-79
2022/10/30 06:25:58;;;;;;;39.38;26.23;;;;;;;13.66;76.71;101338.50;5089244;28;20060;-78
2022/10/30 06:28:23;;;;;;;47.67;28.98;;;;;;;13.61;76.43;101335.31;5089043;28;20085;-81
2022/10/30 06:30:49;;;;;;;95.15;33.10;;;;;;;13.49;76.70;101342.59;5089025;28;20706;-80
2022/10/30 06:33:14;;;;;;;48.80;32.53;;;;;;;13.59;76.53;101348.09;5088911;28;20143;-78
2022/10/30 06:35:39;;;;;;;42.90;33.92;;;;;;;13.56;76.39;101333.00;5088898;28;20432;-80
2022/10/30 06:38:05;;;;;;;56.92;33.97;;;;;;;13.62;76.33;101340.59;5089055;28;20578;-78
2022/10/30 06:40:30;;;;;;;48.88;34.08;;;;;;;13.69;76.41;101338.25;5095813;28;20031;-79
2022/10/30 06:42:56;;;;;;;47.40;33.97;;;;;;;13.56;76.21;101316.78;5095777;28;20107;-79
2022/10/30 06:45:23;;;;;;;47.13;32.63;;;;;;;13.61;76.17;101308.28;5095602;28;20032;-78
2022/10/30 06:47:49;;;;;;;44.17;32.67;;;;;;;13.85;76.46;101343.25;5096311;28;20189;-79
2022/10/30 06:50:17;;;;;;;57.65;34.55;;;;;;;13.89;76.48;101339.28;5096163;28;20110;-80
2022/10/30 06:52:43;;;;;;;45.58;31.73;;;;;;;13.96;76.74;101335.06;5096072;28;20092;-79
2022/10/30 06:55:09;;;;;;;65.80;30.52;;;;;;;14.03;76.79;101339.84;5117001;28;20080;-81
2022/10/30 06:57:35;;;;;;;49.17;31.00;;;;;;;14.05;76.71;101335.16;5121404;28;20040;-78
2022/10/30 07:00:00;;;;;;;70.25;32.67;;;;;;;13.86;76.76;101294.41;5117570;28;20031;-79
2022/10/30 07:02:26;;;;;;;51.55;33.25;;;;;;;14.02;76.90;101340.81;5096540;28;20060;-83
2022/10/30 07:04:51;;;;;;;50.67;28.25;;;;;;;13.94;76.59;101321.66;5096237;28;20408;-79
2022/10/30 07:07:17;;;;;;;40.00;28.92;;;;;;;13.92;76.48;101323.66;5095843;28;20027;-77
2022/10/30 07:09:45;;;;;;;48.65;29.88;;;;;;;13.94;76.71;101327.06;5096239;28;20114;-82
2022/10/30 07:12:11;;;;;;;42.45;31.42;;;;;;;13.97;76.66;101315.16;5096371;28;20118;-82
2022/10/30 07:14:36;;;;;;;57.10;33.38;;;;;;;14.03;76.67;101326.31;5094638;28;20526;-80
2022/10/30 07:17:02;;;;;;;54.10;31.75;;;;;;;14.06;76.39;101314.38;5095229;28;20401;-79
2022/10/30 07:19:27;;;;;;;50.30;34.80;;;;;;;14.14;76.71;101318.16;5095008;28;20032;-78
2022/10/30 07:21:52;;;;;;;56.70;33.90;;;;;;;14.23;76.44;101321.03;5095024;28;20032;-79
2022/10/30 07:24:18;;;;;;;65.18;31.65;;;;;;;14.13;76.41;101289.38;5096156;28;20051;-83
2022/10/30 07:26:43;;;;;;;52.88;31.20;;;;;;;14.22;76.18;101293.13;5095522;28;20035;-79
2022/10/30 07:29:09;;;;;;;47.80;31.45;;;;;;;14.34;76.29;101308.34;5094940;28;20024;-78
2022/10/30 07:31:34;;;;;;;60.80;31.42;;;;;;;14.37;75.85;101307.25;5091945;28;20044;-78
2022/10/30 07:34:00;;;;;;;69.85;32.97;;;;;;;14.48;75.48;101307.16;5092254;28;20028;-80
2022/10/30 07:36:25;;;;;;;46.33;29.33;;;;;;;14.39;75.51;101272.78;5092528;28;20047;-78
2022/10/30 07:38:51;;;;;;;54.05;30.70;;;;;;;14.65;75.36;101293.84;5092237;28;20123;-79
2022/10/30 07:41:18;;;;;;;49.28;30.85;;;;;;;14.76;74.88;101298.34;5092420;28;20736;-79
2022/10/30 07:43:44;;;;;;;49.28;30.80;;;;;;;14.84;74.27;101295.78;5092294;28;20032;-76
2022/10/30 07:46:09;;;;;;;49.30;30.50;;;;;;;14.89;74.57;101282.69;5092829;28;20047;-79
2022/10/30 07:48:35;;;;;;;68.63;31.75;;;;;;;15.05;74.00;101293.03;5092318;28;20031;-78
2022/10/30 07:51:00;;;;;;;50.58;30.60;;;;;;;15.14;73.77;101290.34;5089300;28;20463;-78
2022/10/30 07:53:26;;;;;;;52.38;30.98;;;;;;;15.23;72.62;101275.97;5089010;28;20119;-79
2022/10/30 07:55:52;;;;;;;52.80;29.48;;;;;;;15.38;72.69;101281.00;5088824;28;20028;-80
2022/10/30 07:58:17;;;;;;;45.58;32.22;;;;;;;15.50;72.48;101263.66;5089507;28;20043;-79
2022/10/30 08:00:42;;;;;;;43.67;30.23;;;;;;;15.69;72.03;101266.34;5089492;28;20036;-81
2022/10/30 08:03:10;;;;;;;50.30;32.92;;;;;;;15.63;70.93;101231.69;5090916;28;20048;-79
2022/10/30 08:05:35;;;;;;;54.30;30.33;;;;;;;15.93;70.02;101253.22;5095646;28;20048;-78
2022/10/30 08:08:01;;;;;;;67.85;32.65;;;;;;;16.08;69.86;101257.22;5115696;28;20040;-78
2022/10/30 08:10:27;;;;;;;64.90;31.75;;;;;;;16.27;69.24;101256.31;5114409;28;20024;-77
2022/10/30 08:12:52;;;;;;;43.45;31.23;;;;;;;16.40;68.62;101237.00;5093944;28;20093;-78
2022/10/30 08:15:18;;;;;;;45.88;30.67;;;;;;;16.58;67.64;101251.53;5091458;28;20477;-79
2022/10/30 08:17:46;;;;;;;51.67;33.67;;;;;;;16.38;67.05;101187.44;5091556;28;20032;-79
2022/10/30 08:20:13;;;;;;;58.20;34.28;;;;;;;16.85;66.66;101247.00;5091500;28;20668;-79
2022/10/30 08:22:47;;;;;;;48.03;32.55;;;;;;;17.00;66.28;101238.38;5092885;28;20035;-77
2022/10/30 08:25:12;;;;;;;49.00;30.33;;;;;;;17.11;65.18;101241.72;5091649;28;20035;-80
2022/10/30 08:27:38;;;;;;;48.53;30.48;;;;;;;17.26;64.79;101240.22;5096081;28;20032;-77
2022/10/30 08:30:04;;;;;;;50.58;31.70;;;;;;;17.39;64.48;101246.13;5092236;28;20028;-79
2022/10/30 08:32:29;;;;;;;70.28;33.30;;;;;;;17.39;64.48;101208.06;5091384;28;20075;-80
2022/10/30 08:34:54;;;;;;;57.75;31.98;;;;;;;17.56;63.42;101213.69;5091125;28;20103;-80
2022/10/30 08:37:20;;;;;;;46.90;28.92;;;;;;;17.90;63.56;101241.88;5092117;28;20024;-80
2022/10/30 08:39:45;;;;;;;50.50;28.35;;;;;;;18.04;63.51;101235.88;5094387;28;20031;-80
2022/10/30 08:42:10;;;;;;;47.40;30.02;;;;;;;18.20;61.88;101227.84;5093515;28;20097;-79
2022/10/30 08:44:36;;;;;;;49.30;28.58;;;;;;;18.38;60.76;101225.91;5091934;28;20020;-78
2022/10/30 08:47:01;;;;;;;43.95;26.60;;;;;;;18.51;60.19;101235.56;5091851;28;20028;-80
2022/10/30 08:49:27;;;;;;;59.88;28.05;;;;;;;18.56;59.57;101219.59;5090677;28;20056;-78
2022/10/30 08:51:52;;;;;;;45.40;27.95;;;;;;;18.67;60.00;101225.63;5091205;28;20110;-79
2022/10/30 08:54:17;;;;;;;169.18;105.30;;;;;;;18.86;59.43;101227.25;5072419;28;20050;-79
2022/10/30 08:56:43;;;;;;;42.20;26.45;;;;;;;19.01;59.07;101214.69;5095795;28;20016;-79
2022/10/30 08:59:08;;;;;;;53.20;27.52;;;;;;;19.13;58.58;101218.81;5091614;28;20027;-78
2022/10/30 09:01:35;;;;;;;44.20;24.77;;;;;;;19.29;58.22;101213.41;5090411;28;20134;-80
2022/10/30 09:04:01;;;;;;;71.47;27.52;;;;;;;19.43;57.72;101215.53;5091875;28;20032;-79
2022/10/30 09:06:26;;;;;;;49.53;24.85;;;;;;;19.45;57.65;101180.72;5091124;28;20110;-79
2022/10/30 09:08:51;;;;;;;44.00;22.73;;;;;;;19.63;56.50;101198.84;5092304;28;20055;-80
2022/10/30 09:11:17;;;;;;;67.63;26.30;;;;;;;19.85;56.30;101193.53;5091283;28;20074;-78
2022/10/30 09:13:42;;;;;;;53.92;25.52;;;;;;;19.96;55.84;101206.88;5091865;28;20429;-80
2022/10/30 09:16:08;;;;;;;39.38;23.80;;;;;;;20.07;55.32;101200.19;5100744;28;20122;-78
2022/10/30 09:18:33;;;;;;;52.47;23.73;;;;;;;20.25;54.75;101194.50;5104123;28;20088;-77
2022/10/30 09:20:59;;;;;;;50.22;22.60;;;;;;;20.34;53.92;101197.09;5108514;28;20032;-77
2022/10/30 09:23:24;;;;;;;48.95;23.17;;;;;;;20.35;53.33;101179.69;5111167;28;20024;-80
2022/10/30 09:25:49;;;;;;;34.40;20.38;;;;;;;20.40;53.51;101177.28;5097420;28;20107;-81
2022/10/30 09:28:15;;;;;;;42.35;19.65;;;;;;;20.45;53.00;101174.88;5090977;28;20032;-80
2022/10/30 09:30:40;;;;;;;54.17;19.33;;;;;;;20.58;52.90;101175.16;5090139;28;20475;-79
2022/10/30 09:33:06;;;;;;;61.45;21.20;;;;;;;20.74;52.56;101167.91;5089844;28;20040;-81
2022/10/30 09:35:31;;;;;;;38.55;18.77;;;;;;;20.73;51.86;101149.84;5088916;28;20101;-81
2022/10/30 09:37:57;;;;;;;35.45;16.83;;;;;;;20.76;51.53;101154.94;5090801;28;20078;-79
2022/10/30 09:40:43;;;;;;;38.80;17.02;;;;;;;20.85;51.10;101162.09;5092049;28;20085;-80
2022/10/30 09:43:43;;;;;;;40.90;15.68;;;;;;;20.98;51.02;101154.13;5089829;28;20028;-80
2022/10/30 09:46:22;;;;;;;73.70;17.02;;;;;;;21.16;50.82;101146.53;5027010;28;20042;-80
2022/10/30 09:48:53;;;;;;;34.40;15.98;;;;;;;21.20;49.69;101142.41;5026817;28;20073;-78
2022/10/30 09:51:24;;;;;;;166.63;19.58;;;;;;;21.19;49.56;101135.25;5026897;28;20420;-79
2022/10/30 09:54:11;;;;;;;36.25;15.27;;;;;;;21.34;49.91;101130.69;5026787;28;20081;-78
2022/10/30 09:57:04;;;;;;;25.33;13.85;;;;;;;21.10;49.05;101077.00;5026560;28;20045;-79
2022/10/30 09:59:29;;;;;;;;;;;;;;;21.52;49.16;101124.91;5026940;28;20045;-79
2022/10/30 10:02:09;;;;;;;52.10;15.23;;;;;;;21.57;48.98;101120.59;5026575;28;20007;-78
2022/10/30 10:04:42;;;;;;;26.10;12.02;;;;;;;21.68;48.38;101114.66;5026457;28;20046;-80
2022/10/30 10:07:38;;;;;;;33.95;12.77;;;;;;;21.83;48.05;101116.59;5009910;28;20042;-80
2022/10/30 10:10:13;;;;;;;39.20;12.82;;;;;;;21.94;47.68;101122.50;5026776;28;20048;-80
2022/10/30 10:12:44;;;;;;;21.90;10.18;;;;;;;21.87;46.90;101085.03;5026197;28;20036;-79
2022/10/30 10:15:15;;;;;;;36.63;10.82;;;;;;;22.08;46.78;101104.34;5025900;28;20034;-79
2022/10/30 10:17:45;;;;;;;44.58;9.85;;;;;;;22.19;46.45;101104.78;5026258;28;20029;-79
2022/10/30 10:20:25;;;;;;;23.30;10.30;;;;;;;22.18;46.01;101093.97;5026165;28;20033;-80
2022/10/30 10:22:51;;;;;;;23.63;8.05;;;;;;;22.20;45.76;101072.72;5055068;28;20047;-79
2022/10/30 10:25:19;;;;;;;41.40;8.50;;;;;;;22.41;45.54;101089.25;5089527;28;20032;-80
2022/10/30 10:27:44;;;;;;;16.90;7.32;;;;;;;22.53;45.02;101095.09;5089894;28;20396;-79
2022/10/30 10:30:19;;;;;;;16.98;8.10;;;;;;;22.61;45.07;101084.88;5089448;28;20028;-79
2022/10/30 10:33:02;;;;;;;20.23;9.82;;;;;;;22.67;44.54;101091.50;5113294;28;20052;-80
2022/10/30 10:36:07;;;;;;;20.77;7.28;;;;;;;22.67;44.47;101078.66;5110575;28;20046;-77
2022/10/30 10:38:35;;;;;;;27.75;8.60;;;;;;;22.70;44.13;101061.81;5096264;28;20147;-79
2022/10/30 10:41:25;;;;;;;15.10;7.63;;;;;;;22.88;43.74;101074.25;5089943;28;20020;-81
2022/10/30 10:44:09;;;;;;;21.33;8.15;;;;;;;23.00;43.53;101078.19;5088893;28;20032;-78
2022/10/30 10:47:12;;;;;;;23.38;7.47;;;;;;;23.10;43.47;101076.81;5089307;28;20074;-81
2022/10/30 10:49:52;;;;;;;41.80;9.07;;;;;;;23.06;43.42;101039.84;5089124;28;20487;-79
2022/10/30 10:52:24;;;;;;;111.90;11.07;;;;;;;23.26;43.71;101060.09;5089195;28;20451;-79
2022/10/30 10:54:55;;;;;;;13.83;6.27;;;;;;;23.47;43.36;101058.41;5088960;28;20515;-80
2022/10/30 10:57:31;;;;;;;24.85;6.90;;;;;;;23.53;42.95;101036.50;5088754;28;20050;-83
2022/10/30 11:00:05;;;;;;;46.80;8.38;;;;;;;23.62;42.37;101038.06;5088854;28;20032;-79
2022/10/30 11:02:40;;;;;;;28.52;5.78;;;;;;;23.82;42.11;101050.03;5088477;28;20036;-79
2022/10/30 11:05:17;;;;;;;14.55;6.32;;;;;;;23.94;41.86;101044.00;5088909;28;20024;-79
2022/10/30 11:07:47;;;;;;;24.95;7.25;;;;;;;24.03;41.45;101042.78;5088260;28;20032;-79
2022/10/30 11:10:15;;;;;;;14.95;7.53;;;;;;;24.10;41.18;101032.66;5087124;28;20036;-79
2022/10/30 11:12:41;;;;;;;31.45;6.68;;;;;;;24.24;41.26;101034.47;5088667;28;20047;-78
2022/10/30 11:15:28;;;;;;;16.38;7.13;;;;;;;24.28;40.84;101033.84;5086156;28;20196;-79